sensor_id;sensor_type;location;lat;lon;timestamp;P1;durP1;ratioP1;P2;durP2;ratioP2
6953;SDS011;3516;47.980;8.808;2023-03-23T05:01:13;1.90;;;1.80;;
6953;SDS011;3516;47.980;8.808;2023-03-23T05:03:42;2.38;;;2.10;;
6953;SDS011;3516;47.980;8.808;2023-03-23T05:06:09;5.05;;;2.78;;
6953;SDS011;3516;47.980;8.808;2023-03-23T05:08:37;2.90;;;2.70;;
6953;SDS011;3516;47.980;8.808;2023-03-23T05:11:04;2.72;;;2.53;;
6953;SDS011;3516;47.980;8.808;2023-03-23T05:13:32;2.42;;;2.33;;
6953;SDS011;3516;47.980;8.808;2023-03-23T05:16:04;2.17;;;2.08;;
6953;SDS011;3516;47.980;8.808;2023-03-23T05:18:31;2.65;;;2.45;;
6953;SDS011;3516;47.980;8.808;2023-03-23T05:20:59;2.40;;;2.28;;
6953;SDS011;3516;47.980;8.808;2023-03-23T05:23:26;2.20;;;2.10;;
6953;SDS011;3516;47.980;8.808;2023-03-23T05:25:56;2.20;;;2.10;;
6953;SDS011;3516;47.980;8.808;2023-03-23T05:28:25;3.53;;;2.40;;
6953;SDS011;3516;47.980;8.808;2023-03-23T05:30:52;2.47;;;2.38;;
6953;SDS011;3516;47.980;8.808;2023-03-23T05:33:22;2.25;;;2.15;;
6953;SDS011;3516;47.980;8.808;2023-03-23T05:35:49;2.78;;;1.55;;
6953;SDS011;3516;47.980;8.808;2023-03-23T05:38:15;1.73;;;1.63;;
6953;SDS011;3516;47.980;8.808;2023-03-23T05:40:43;1.58;;;1.48;;
6953;SDS011;3516;47.980;8.808;2023-03-23T05:43:10;1.33;;;1.27;;
6953;SDS011;3516;47.980;8.808;2023-03-23T05:45:37;2.78;;;1.60;;
6953;SDS011;3516;47.980;8.808;2023-03-23T05:48:03;1.55;;;1.50;;
6953;SDS011;3516;47.980;8.808;2023-03-23T05:50:32;1.98;;;1.83;;
6953;SDS011;3516;47.980;8.808;2023-03-23T05:52:59;1.63;;;1.52;;
6953;SDS011;3516;47.980;8.808;2023-03-23T05:55:28;1.77;;;1.30;;
6953;SDS011;3516;47.980;8.808;2023-03-23T05:57:55;1.65;;;1.55;;
6953;SDS011;3516;47.980;8.808;2023-03-23T06:00:22;2.22;;;1.70;;
6953;SDS011;3516;47.980;8.808;2023-03-23T06:02:49;1.50;;;1.50;;
6953;SDS011;3516;47.980;8.808;2023-03-23T06:05:16;2.10;;;1.40;;
6953;SDS011;3516;47.980;8.808;2023-03-23T06:07:45;3.88;;;1.85;;
6953;SDS011;3516;47.980;8.808;2023-03-23T06:18:22;3.20;;;1.73;;
6953;SDS011;3516;47.980;8.808;2023-03-23T11:06:02;3.78;;;0.80;;
6953;SDS011;3516;47.980;8.808;2023-03-23T11:08:32;1.00;;;1.00;;
6953;SDS011;3516;47.980;8.808;2023-03-23T11:11:07;1.20;;;1.00;;
6953;SDS011;3516;47.980;8.808;2023-03-23T11:13:38;1.25;;;1.00;;
6953;SDS011;3516;47.980;8.808;2023-03-23T11:16:08;0.93;;;0.90;;
6953;SDS011;3516;47.980;8.808;2023-03-23T11:18:36;0.60;;;0.60;;
6953;SDS011;3516;47.980;8.808;2023-03-23T11:21:06;1.17;;;1.10;;
6953;SDS011;3516;47.980;8.808;2023-03-23T11:23:34;0.80;;;0.80;;
6953;SDS011;3516;47.980;8.808;2023-03-23T11:26:08;1.00;;;1.00;;
6953;SDS011;3516;47.980;8.808;2023-03-23T11:28:42;0.90;;;0.90;;
6953;SDS011;3516;47.980;8.808;2023-03-23T11:31:11;1.23;;;1.13;;
6953;SDS011;3516;47.980;8.808;2023-03-23T11:33:46;0.88;;;0.88;;
6953;SDS011;3516;47.980;8.808;2023-03-23T11:36:18;1.25;;;1.10;;
6953;SDS011;3516;47.980;8.808;2023-03-23T11:38:45;1.00;;;1.00;;
6953;SDS011;3516;47.980;8.808;2023-03-23T11:41:13;1.23;;;1.00;;
6953;SDS011;3516;47.980;8.808;2023-03-23T11:43:45;1.27;;;1.15;;
6953;SDS011;3516;47.980;8.808;2023-03-23T11:46:16;0.80;;;0.80;;
6953;SDS011;3516;47.980;8.808;2023-03-23T11:48:51;1.13;;;1.02;;
6953;SDS011;3516;47.980;8.808;2023-03-23T11:51:26;0.68;;;0.68;;
6953;SDS011;3516;47.980;8.808;2023-03-23T11:54:02;1.48;;;1.10;;
6953;SDS011;3516;47.980;8.808;2023-03-23T11:56:35;2.33;;;1.10;;
6953;SDS011;3516;47.980;8.808;2023-03-23T11:59:05;1.15;;;0.85;;
6953;SDS011;3516;47.980;8.808;2023-03-23T12:01:43;1.00;;;1.00;;
6953;SDS011;3516;47.980;8.808;2023-03-23T12:07:27;1.20;;;1.10;;
6953;SDS011;3516;47.980;8.808;2023-03-23T12:10:12;0.80;;;0.80;;
6953;SDS011;3516;47.980;8.808;2023-03-23T12:12:50;1.25;;;1.15;;
6953;SDS011;3516;47.980;8.808;2023-03-23T12:15:25;1.27;;;1.20;;
6953;SDS011;3516;47.980;8.808;2023-03-23T12:17:59;1.65;;;1.00;;
6953;SDS011;3516;47.980;8.808;2023-03-23T12:20:35;2.58;;;1.25;;
6953;SDS011;3516;47.980;8.808;2023-03-23T12:23:14;1.00;;;1.00;;
6953;SDS011;3516;47.980;8.808;2023-03-23T12:25:54;1.00;;;1.00;;
6953;SDS011;3516;47.980;8.808;2023-03-23T12:28:32;1.25;;;1.15;;
6953;SDS011;3516;47.980;8.808;2023-03-23T12:31:09;3.15;;;1.10;;
6953;SDS011;3516;47.980;8.808;2023-03-23T12:33:43;1.00;;;1.00;;
6953;SDS011;3516;47.980;8.808;2023-03-23T12:36:19;1.02;;;1.00;;
6953;SDS011;3516;47.980;8.808;2023-03-23T12:42:02;1.02;;;1.02;;
6953;SDS011;3516;47.980;8.808;2023-03-23T12:44:35;1.55;;;1.27;;
6953;SDS011;3516;47.980;8.808;2023-03-23T12:47:08;3.80;;;1.50;;
6953;SDS011;3516;47.980;8.808;2023-03-23T12:49:58;1.23;;;1.15;;
6953;SDS011;3516;47.980;8.808;2023-03-23T12:52:30;1.67;;;1.45;;
6953;SDS011;3516;47.980;8.808;2023-03-23T12:55:02;1.40;;;1.23;;
6953;SDS011;3516;47.980;8.808;2023-03-23T12:57:35;1.30;;;1.20;;
6953;SDS011;3516;47.980;8.808;2023-03-23T13:00:14;1.00;;;0.85;;
6953;SDS011;3516;47.980;8.808;2023-03-23T13:02:46;1.27;;;1.23;;
6953;SDS011;3516;47.980;8.808;2023-03-23T13:05:26;1.40;;;1.40;;
6953;SDS011;3516;47.980;8.808;2023-03-23T13:08:06;1.48;;;1.38;;
6953;SDS011;3516;47.980;8.808;2023-03-23T13:10:38;1.42;;;1.30;;
6953;SDS011;3516;47.980;8.808;2023-03-23T13:13:09;2.15;;;1.27;;
6953;SDS011;3516;47.980;8.808;2023-03-23T13:15:43;1.20;;;1.20;;
6953;SDS011;3516;47.980;8.808;2023-03-23T13:18:16;1.40;;;1.30;;
6953;SDS011;3516;47.980;8.808;2023-03-23T13:21:00;1.20;;;1.20;;
6953;SDS011;3516;47.980;8.808;2023-03-23T13:23:34;1.20;;;1.20;;
6953;SDS011;3516;47.980;8.808;2023-03-23T13:26:05;4.03;;;1.55;;
6953;SDS011;3516;47.980;8.808;2023-03-23T13:28:47;1.52;;;1.50;;
6953;SDS011;3516;47.980;8.808;2023-03-23T13:31:19;1.40;;;1.30;;
6953;SDS011;3516;47.980;8.808;2023-03-23T13:33:50;1.27;;;1.27;;
6953;SDS011;3516;47.980;8.808;2023-03-23T13:36:29;1.40;;;1.30;;
6953;SDS011;3516;47.980;8.808;2023-03-23T13:38:58;2.08;;;1.40;;
6953;SDS011;3516;47.980;8.808;2023-03-23T13:41:26;1.27;;;1.27;;
6953;SDS011;3516;47.980;8.808;2023-03-23T13:44:05;1.70;;;1.60;;
6953;SDS011;3516;47.980;8.808;2023-03-23T13:46:41;1.67;;;1.42;;
6953;SDS011;3516;47.980;8.808;2023-03-23T13:49:17;1.48;;;1.38;;
6953;SDS011;3516;47.980;8.808;2023-03-23T13:51:56;1.63;;;1.52;;
6953;SDS011;3516;47.980;8.808;2023-03-23T13:54:30;2.30;;;1.35;;
6953;SDS011;3516;47.980;8.808;2023-03-23T13:57:19;1.52;;;1.52;;
6953;SDS011;3516;47.980;8.808;2023-03-23T13:59:56;1.52;;;1.42;;
6953;SDS011;3516;47.980;8.808;2023-03-23T14:02:29;1.90;;;1.80;;
6953;SDS011;3516;47.980;8.808;2023-03-23T14:05:08;1.58;;;1.30;;
6953;SDS011;3516;47.980;8.808;2023-03-23T14:07:54;1.30;;;1.30;;
6953;SDS011;3516;47.980;8.808;2023-03-23T14:10:24;2.95;;;1.48;;
6953;SDS011;3516;47.980;8.808;2023-03-23T14:12:57;1.70;;;1.60;;
6953;SDS011;3516;47.980;8.808;2023-03-23T14:15:29;1.38;;;1.27;;
6953;SDS011;3516;47.980;8.808;2023-03-23T14:17:56;2.47;;;1.50;;
6953;SDS011;3516;47.980;8.808;2023-03-23T14:20:29;1.75;;;1.13;;
6953;SDS011;3516;47.980;8.808;2023-03-23T14:22:58;1.63;;;1.50;;
6953;SDS011;3516;47.980;8.808;2023-03-23T14:25:26;2.65;;;1.50;;
6953;SDS011;3516;47.980;8.808;2023-03-23T14:27:55;1.25;;;1.25;;
6953;SDS011;3516;47.980;8.808;2023-03-23T14:30:23;1.45;;;1.30;;
6953;SDS011;3516;47.980;8.808;2023-03-23T14:32:53;1.13;;;1.13;;
6953;SDS011;3516;47.980;8.808;2023-03-23T14:35:29;1.50;;;1.40;;
6953;SDS011;3516;47.980;8.808;2023-03-23T14:37:57;1.85;;;1.75;;
6953;SDS011;3516;47.980;8.808;2023-03-23T14:40:26;1.48;;;1.38;;
6953;SDS011;3516;47.980;8.808;2023-03-23T14:42:54;1.25;;;1.25;;
6953;SDS011;3516;47.980;8.808;2023-03-23T14:45:23;1.40;;;1.40;;
6953;SDS011;3516;47.980;8.808;2023-03-23T14:47:53;1.40;;;1.40;;
6953;SDS011;3516;47.980;8.808;2023-03-23T14:50:25;1.50;;;1.40;;
6953;SDS011;3516;47.980;8.808;2023-03-23T14:52:56;1.63;;;1.48;;
6953;SDS011;3516;47.980;8.808;2023-03-23T14:55:25;1.52;;;1.45;;
6953;SDS011;3516;47.980;8.808;2023-03-23T14:57:56;2.13;;;1.60;;
6953;SDS011;3516;47.980;8.808;2023-03-23T15:00:33;1.88;;;1.67;;
6953;SDS011;3516;47.980;8.808;2023-03-23T15:03:04;1.65;;;1.55;;
6953;SDS011;3516;47.980;8.808;2023-03-23T15:05:36;1.48;;;1.38;;
6953;SDS011;3516;47.980;8.808;2023-03-23T15:08:07;1.58;;;1.42;;
6953;SDS011;3516;47.980;8.808;2023-03-23T15:10:39;1.60;;;1.50;;
6953;SDS011;3516;47.980;8.808;2023-03-23T15:13:08;1.38;;;1.30;;
6953;SDS011;3516;47.980;8.808;2023-03-23T15:15:38;1.13;;;1.13;;
6953;SDS011;3516;47.980;8.808;2023-03-23T15:18:14;1.45;;;0.95;;
6953;SDS011;3516;47.980;8.808;2023-03-23T15:20:54;1.00;;;1.00;;
6953;SDS011;3516;47.980;8.808;2023-03-23T15:23:22;2.70;;;1.40;;
6953;SDS011;3516;47.980;8.808;2023-03-23T15:25:54;1.00;;;1.00;;
6953;SDS011;3516;47.980;8.808;2023-03-23T15:28:27;2.00;;;1.50;;
6953;SDS011;3516;47.980;8.808;2023-03-23T15:30:56;1.60;;;1.48;;
6953;SDS011;3516;47.980;8.808;2023-03-23T15:33:27;1.38;;;1.38;;
6953;SDS011;3516;47.980;8.808;2023-03-23T15:36:04;1.63;;;1.52;;
6953;SDS011;3516;47.980;8.808;2023-03-23T15:38:33;1.33;;;1.33;;
6953;SDS011;3516;47.980;8.808;2023-03-23T15:41:01;1.63;;;1.30;;
6953;SDS011;3516;47.980;8.808;2023-03-23T15:43:30;1.65;;;1.52;;
6953;SDS011;3516;47.980;8.808;2023-03-23T15:45:59;2.05;;;1.95;;
6953;SDS011;3516;47.980;8.808;2023-03-23T15:48:30;2.03;;;1.77;;
6953;SDS011;3516;47.980;8.808;2023-03-23T15:50:57;1.77;;;1.50;;
6953;SDS011;3516;47.980;8.808;2023-03-23T15:53:27;1.92;;;1.60;;
6953;SDS011;3516;47.980;8.808;2023-03-23T15:55:57;1.60;;;1.50;;
6953;SDS011;3516;47.980;8.808;2023-03-23T15:58:26;1.52;;;1.42;;
6953;SDS011;3516;47.980;8.808;2023-03-23T16:00:53;1.48;;;1.48;;
6953;SDS011;3516;47.980;8.808;2023-03-23T16:03:21;1.70;;;1.60;;
6953;SDS011;3516;47.980;8.808;2023-03-23T16:05:52;2.95;;;1.30;;
6953;SDS011;3516;47.980;8.808;2023-03-23T16:08:21;1.38;;;1.38;;
6953;SDS011;3516;47.980;8.808;2023-03-23T16:10:48;1.50;;;1.40;;
6953;SDS011;3516;47.980;8.808;2023-03-23T16:13:15;3.60;;;1.75;;
6953;SDS011;3516;47.980;8.808;2023-03-23T16:15:42;1.75;;;1.65;;
6953;SDS011;3516;47.980;8.808;2023-03-23T16:18:12;1.35;;;1.33;;
6953;SDS011;3516;47.980;8.808;2023-03-23T16:20:43;2.20;;;1.35;;
6953;SDS011;3516;47.980;8.808;2023-03-23T16:23:11;1.27;;;1.27;;
6953;SDS011;3516;47.980;8.808;2023-03-23T16:25:38;2.80;;;1.10;;
6953;SDS011;3516;47.980;8.808;2023-03-23T16:28:05;1.20;;;1.20;;
6953;SDS011;3516;47.980;8.808;2023-03-23T16:30:36;1.60;;;1.60;;
6953;SDS011;3516;47.980;8.808;2023-03-23T16:33:03;1.30;;;1.20;;
6953;SDS011;3516;47.980;8.808;2023-03-23T16:35:30;3.00;;;1.30;;
6953;SDS011;3516;47.980;8.808;2023-03-23T16:37:57;1.17;;;1.17;;
6953;SDS011;3516;47.980;8.808;2023-03-23T16:40:25;2.10;;;1.42;;
6953;SDS011;3516;47.980;8.808;2023-03-23T16:42:52;1.13;;;1.13;;
6953;SDS011;3516;47.980;8.808;2023-03-23T16:45:20;1.20;;;1.20;;
6953;SDS011;3516;47.980;8.808;2023-03-23T16:47:48;1.90;;;1.80;;
6953;SDS011;3516;47.980;8.808;2023-03-23T16:50:16;1.15;;;1.10;;
6953;SDS011;3516;47.980;8.808;2023-03-23T16:52:44;1.27;;;1.17;;
6953;SDS011;3516;47.980;8.808;2023-03-23T16:55:13;1.17;;;1.17;;
6953;SDS011;3516;47.980;8.808;2023-03-23T16:57:42;1.55;;;1.45;;
6953;SDS011;3516;47.980;8.808;2023-03-23T17:00:10;1.27;;;1.27;;
6953;SDS011;3516;47.980;8.808;2023-03-23T17:02:39;1.55;;;1.52;;
6953;SDS011;3516;47.980;8.808;2023-03-23T17:05:07;1.40;;;1.40;;
6953;SDS011;3516;47.980;8.808;2023-03-23T17:07:34;1.25;;;1.23;;
6953;SDS011;3516;47.980;8.808;2023-03-23T17:10:02;1.52;;;1.30;;
6953;SDS011;3516;47.980;8.808;2023-03-23T17:12:30;6.28;;;1.20;;
6953;SDS011;3516;47.980;8.808;2023-03-23T17:14:58;1.63;;;1.30;;
6953;SDS011;3516;47.980;8.808;2023-03-23T17:17:25;1.40;;;1.30;;
6953;SDS011;3516;47.980;8.808;2023-03-23T17:19:52;1.58;;;1.40;;
6953;SDS011;3516;47.980;8.808;2023-03-23T17:22:20;1.10;;;1.10;;
6953;SDS011;3516;47.980;8.808;2023-03-23T17:24:47;1.98;;;1.88;;
6953;SDS011;3516;47.980;8.808;2023-03-23T17:27:15;1.65;;;1.60;;
6953;SDS011;3516;47.980;8.808;2023-03-23T17:29:42;1.50;;;1.30;;
6953;SDS011;3516;47.980;8.808;2023-03-23T17:32:11;1.35;;;1.35;;
6953;SDS011;3516;47.980;8.808;2023-03-23T17:34:38;1.10;;;1.10;;
6953;SDS011;3516;47.980;8.808;2023-03-23T17:37:05;1.40;;;1.30;;
6953;SDS011;3516;47.980;8.808;2023-03-23T17:39:33;1.30;;;1.30;;
6953;SDS011;3516;47.980;8.808;2023-03-23T17:42:00;1.30;;;1.20;;
6953;SDS011;3516;47.980;8.808;2023-03-23T17:44:28;1.30;;;1.30;;
6953;SDS011;3516;47.980;8.808;2023-03-23T17:46:55;1.25;;;1.25;;
6953;SDS011;3516;47.980;8.808;2023-03-23T17:49:23;1.50;;;1.45;;
6953;SDS011;3516;47.980;8.808;2023-03-23T17:51:50;1.15;;;1.13;;
6953;SDS011;3516;47.980;8.808;2023-03-23T17:54:17;1.10;;;1.10;;
6953;SDS011;3516;47.980;8.808;2023-03-23T17:56:44;1.30;;;1.30;;
6953;SDS011;3516;47.980;8.808;2023-03-23T17:59:11;1.20;;;1.20;;
6953;SDS011;3516;47.980;8.808;2023-03-23T18:01:38;1.55;;;1.45;;
6953;SDS011;3516;47.980;8.808;2023-03-23T18:04:05;1.20;;;1.20;;
6953;SDS011;3516;47.980;8.808;2023-03-23T18:06:34;1.48;;;1.38;;
6953;SDS011;3516;47.980;8.808;2023-03-23T18:09:01;1.10;;;1.10;;
6953;SDS011;3516;47.980;8.808;2023-03-23T18:11:29;1.65;;;1.15;;
6953;SDS011;3516;47.980;8.808;2023-03-23T18:13:56;1.40;;;1.40;;
6953;SDS011;3516;47.980;8.808;2023-03-23T18:16:23;1.10;;;1.10;;
6953;SDS011;3516;47.980;8.808;2023-03-23T18:18:51;1.33;;;1.33;;
6953;SDS011;3516;47.980;8.808;2023-03-23T18:21:18;0.95;;;0.90;;
6953;SDS011;3516;47.980;8.808;2023-03-23T18:23:46;1.35;;;1.10;;
6953;SDS011;3516;47.980;8.808;2023-03-23T18:26:13;1.13;;;1.10;;
6953;SDS011;3516;47.980;8.808;2023-03-23T18:28:41;1.20;;;1.20;;
6953;SDS011;3516;47.980;8.808;2023-03-23T18:31:09;0.95;;;0.95;;
6953;SDS011;3516;47.980;8.808;2023-03-23T18:33:37;1.10;;;1.10;;
6953;SDS011;3516;47.980;8.808;2023-03-23T18:36:08;1.25;;;1.25;;
6953;SDS011;3516;47.980;8.808;2023-03-23T18:38:35;1.30;;;1.30;;
6953;SDS011;3516;47.980;8.808;2023-03-23T18:41:05;1.67;;;1.58;;
6953;SDS011;3516;47.980;8.808;2023-03-23T18:43:33;1.27;;;1.27;;
6953;SDS011;3516;47.980;8.808;2023-03-23T18:45:59;1.30;;;1.30;;
6953;SDS011;3516;47.980;8.808;2023-03-23T18:48:26;1.30;;;1.30;;
6953;SDS011;3516;47.980;8.808;2023-03-23T18:50:54;1.10;;;1.10;;
6953;SDS011;3516;47.980;8.808;2023-03-23T18:53:22;1.25;;;1.25;;
6953;SDS011;3516;47.980;8.808;2023-03-23T18:55:49;1.20;;;1.20;;
6953;SDS011;3516;47.980;8.808;2023-03-23T18:58:18;1.65;;;0.80;;
6953;SDS011;3516;47.980;8.808;2023-03-23T19:00:46;2.53;;;1.20;;
6953;SDS011;3516;47.980;8.808;2023-03-23T19:03:14;1.02;;;1.02;;
6953;SDS011;3516;47.980;8.808;2023-03-23T19:05:40;0.90;;;0.90;;
6953;SDS011;3516;47.980;8.808;2023-03-23T19:08:08;0.90;;;0.90;;
6953;SDS011;3516;47.980;8.808;2023-03-23T19:10:36;1.02;;;1.02;;
6953;SDS011;3516;47.980;8.808;2023-03-23T19:13:04;0.90;;;0.90;;
6953;SDS011;3516;47.980;8.808;2023-03-23T19:15:32;0.90;;;0.90;;
6953;SDS011;3516;47.980;8.808;2023-03-23T19:18:02;0.85;;;0.85;;
6953;SDS011;3516;47.980;8.808;2023-03-23T19:20:29;1.10;;;0.88;;
6953;SDS011;3516;47.980;8.808;2023-03-23T19:22:57;2.35;;;0.98;;
6953;SDS011;3516;47.980;8.808;2023-03-23T19:25:24;1.00;;;1.00;;
6953;SDS011;3516;47.980;8.808;2023-03-23T19:27:51;0.98;;;0.98;;
6953;SDS011;3516;47.980;8.808;2023-03-23T19:30:18;1.05;;;1.05;;
6953;SDS011;3516;47.980;8.808;2023-03-23T19:32:47;0.70;;;0.70;;
6953;SDS011;3516;47.980;8.808;2023-03-23T19:35:14;0.90;;;0.90;;
6953;SDS011;3516;47.980;8.808;2023-03-23T19:37:41;0.98;;;0.98;;
6953;SDS011;3516;47.980;8.808;2023-03-23T19:40:09;0.85;;;0.85;;
6953;SDS011;3516;47.980;8.808;2023-03-23T19:42:37;1.38;;;1.35;;
6953;SDS011;3516;47.980;8.808;2023-03-23T19:45:05;0.98;;;0.98;;
6953;SDS011;3516;47.980;8.808;2023-03-23T19:47:33;0.90;;;0.90;;
6953;SDS011;3516;47.980;8.808;2023-03-23T19:50:01;1.20;;;1.20;;
6953;SDS011;3516;47.980;8.808;2023-03-23T19:52:28;1.17;;;1.08;;
6953;SDS011;3516;47.980;8.808;2023-03-23T19:54:56;1.00;;;1.00;;
6953;SDS011;3516;47.980;8.808;2023-03-23T19:57:23;0.77;;;0.77;;
6953;SDS011;3516;47.980;8.808;2023-03-23T19:59:50;1.00;;;1.00;;
6953;SDS011;3516;47.980;8.808;2023-03-23T20:02:17;0.90;;;0.90;;
6953;SDS011;3516;47.980;8.808;2023-03-23T20:04:44;1.33;;;1.23;;
6953;SDS011;3516;47.980;8.808;2023-03-23T20:07:13;1.00;;;1.00;;
6953;SDS011;3516;47.980;8.808;2023-03-23T20:09:40;1.10;;;1.10;;
6953;SDS011;3516;47.980;8.808;2023-03-23T20:12:08;0.90;;;0.90;;
6953;SDS011;3516;47.980;8.808;2023-03-23T20:14:35;0.77;;;0.77;;
6953;SDS011;3516;47.980;8.808;2023-03-23T20:17:02;2.58;;;1.27;;
6953;SDS011;3516;47.980;8.808;2023-03-23T20:19:29;1.30;;;1.13;;
6953;SDS011;3516;47.980;8.808;2023-03-23T20:21:56;1.05;;;1.05;;
6953;SDS011;3516;47.980;8.808;2023-03-23T20:24:24;1.00;;;1.00;;
6953;SDS011;3516;47.980;8.808;2023-03-23T20:26:51;1.00;;;1.00;;
6953;SDS011;3516;47.980;8.808;2023-03-23T20:29:18;1.00;;;1.00;;
6953;SDS011;3516;47.980;8.808;2023-03-23T20:31:45;1.10;;;1.10;;
6953;SDS011;3516;47.980;8.808;2023-03-23T20:34:16;0.93;;;0.85;;
6953;SDS011;3516;47.980;8.808;2023-03-23T20:36:53;0.73;;;0.73;;
6953;SDS011;3516;47.980;8.808;2023-03-23T20:39:22;1.00;;;1.00;;
6953;SDS011;3516;47.980;8.808;2023-03-23T20:41:51;0.90;;;0.90;;
6953;SDS011;3516;47.980;8.808;2023-03-23T20:44:22;0.70;;;0.70;;
6953;SDS011;3516;47.980;8.808;2023-03-23T20:46:50;1.65;;;0.90;;
6953;SDS011;3516;47.980;8.808;2023-03-23T20:49:18;0.88;;;0.88;;
6953;SDS011;3516;47.980;8.808;2023-03-23T20:51:46;0.88;;;0.88;;
6953;SDS011;3516;47.980;8.808;2023-03-23T20:54:13;1.33;;;1.33;;
6953;SDS011;3516;47.980;8.808;2023-03-23T20:56:41;1.15;;;1.05;;
6953;SDS011;3516;47.980;8.808;2023-03-23T20:59:09;1.10;;;1.10;;
6953;SDS011;3516;47.980;8.808;2023-03-23T21:01:37;1.40;;;1.25;;
6953;SDS011;3516;47.980;8.808;2023-03-23T21:04:04;0.90;;;0.90;;
6953;SDS011;3516;47.980;8.808;2023-03-23T21:06:38;0.98;;;0.98;;
6953;SDS011;3516;47.980;8.808;2023-03-23T21:09:05;1.08;;;1.08;;
6953;SDS011;3516;47.980;8.808;2023-03-23T21:11:33;0.73;;;0.73;;
6953;SDS011;3516;47.980;8.808;2023-03-23T21:14:00;0.70;;;0.70;;
6953;SDS011;3516;47.980;8.808;2023-03-23T21:16:29;0.88;;;0.88;;
6953;SDS011;3516;47.980;8.808;2023-03-23T21:18:56;1.00;;;1.00;;
6953;SDS011;3516;47.980;8.808;2023-03-23T21:21:23;0.90;;;0.90;;
6953;SDS011;3516;47.980;8.808;2023-03-23T21:23:52;0.90;;;0.90;;
6953;SDS011;3516;47.980;8.808;2023-03-23T21:26:22;0.73;;;0.73;;
6953;SDS011;3516;47.980;8.808;2023-03-23T21:28:50;0.93;;;0.93;;
6953;SDS011;3516;47.980;8.808;2023-03-23T21:31:18;2.08;;;1.15;;
6953;SDS011;3516;47.980;8.808;2023-03-23T21:33:48;1.15;;;1.05;;
6953;SDS011;3516;47.980;8.808;2023-03-23T21:36:15;1.10;;;1.10;;
6953;SDS011;3516;47.980;8.808;2023-03-23T21:38:42;1.23;;;1.20;;
6953;SDS011;3516;47.980;8.808;2023-03-23T21:41:10;0.90;;;0.90;;
6953;SDS011;3516;47.980;8.808;2023-03-23T21:43:39;1.45;;;0.90;;
6953;SDS011;3516;47.980;8.808;2023-03-23T21:46:06;0.90;;;0.90;;
6953;SDS011;3516;47.980;8.808;2023-03-23T21:48:34;1.13;;;1.13;;
6953;SDS011;3516;47.980;8.808;2023-03-23T21:51:04;1.02;;;1.02;;
6953;SDS011;3516;47.980;8.808;2023-03-23T21:53:32;0.70;;;0.70;;
6953;SDS011;3516;47.980;8.808;2023-03-23T21:56:00;0.90;;;0.90;;
6953;SDS011;3516;47.980;8.808;2023-03-23T21:58:28;0.90;;;0.90;;
6953;SDS011;3516;47.980;8.808;2023-03-23T22:00:55;1.02;;;1.02;;
6953;SDS011;3516;47.980;8.808;2023-03-23T22:03:25;0.82;;;0.82;;
6953;SDS011;3516;47.980;8.808;2023-03-23T22:05:56;1.20;;;1.20;;
6953;SDS011;3516;47.980;8.808;2023-03-23T22:08:26;1.30;;;1.30;;
6953;SDS011;3516;47.980;8.808;2023-03-23T22:10:57;4.05;;;1.30;;
6953;SDS011;3516;47.980;8.808;2023-03-23T22:13:25;3.33;;;1.35;;
6953;SDS011;3516;47.980;8.808;2023-03-23T22:15:52;1.30;;;1.30;;
6953;SDS011;3516;47.980;8.808;2023-03-23T22:18:20;1.38;;;1.38;;
6953;SDS011;3516;47.980;8.808;2023-03-23T22:20:47;1.00;;;1.00;;
6953;SDS011;3516;47.980;8.808;2023-03-23T22:23:14;0.98;;;0.90;;
6953;SDS011;3516;47.980;8.808;2023-03-23T22:25:42;3.45;;;1.45;;
6953;SDS011;3516;47.980;8.808;2023-03-23T22:28:09;1.27;;;1.27;;
6953;SDS011;3516;47.980;8.808;2023-03-23T22:30:36;1.20;;;1.20;;
6953;SDS011;3516;47.980;8.808;2023-03-23T22:33:02;1.50;;;1.42;;
6953;SDS011;3516;47.980;8.808;2023-03-23T22:35:30;1.48;;;1.38;;
6953;SDS011;3516;47.980;8.808;2023-03-23T22:37:57;1.15;;;1.15;;
6953;SDS011;3516;47.980;8.808;2023-03-23T22:40:26;1.40;;;1.30;;
6953;SDS011;3516;47.980;8.808;2023-03-23T22:42:54;2.10;;;1.30;;
6953;SDS011;3516;47.980;8.808;2023-03-23T22:45:21;1.50;;;1.40;;
6953;SDS011;3516;47.980;8.808;2023-03-23T22:47:49;1.33;;;1.27;;
6953;SDS011;3516;47.980;8.808;2023-03-23T22:50:16;1.35;;;1.30;;
6953;SDS011;3516;47.980;8.808;2023-03-23T22:52:45;1.88;;;1.63;;
6953;SDS011;3516;47.980;8.808;2023-03-23T22:55:13;1.63;;;1.52;;
6953;SDS011;3516;47.980;8.808;2023-03-23T22:57:40;1.60;;;1.50;;
6953;SDS011;3516;47.980;8.808;2023-03-23T23:00:09;1.48;;;1.40;;
6953;SDS011;3516;47.980;8.808;2023-03-23T23:02:38;1.42;;;1.40;;
6953;SDS011;3516;47.980;8.808;2023-03-23T23:05:05;1.30;;;1.30;;
6953;SDS011;3516;47.980;8.808;2023-03-23T23:07:32;1.20;;;1.20;;
6953;SDS011;3516;47.980;8.808;2023-03-23T23:09:59;1.67;;;1.30;;
6953;SDS011;3516;47.980;8.808;2023-03-23T23:12:27;1.63;;;1.52;;
